createdAt,value
2018-08-22T00:00:56.650Z,94.80
2018-08-22T00:03:25.209Z,94.90
2018-08-22T00:05:53.816Z,95.40
2018-08-22T00:08:27.539Z,95.60
2018-08-22T00:10:56.123Z,96.30
2018-08-22T00:13:24.735Z,96.10
2018-08-22T00:15:53.262Z,96.10
2018-08-22T00:18:21.885Z,96.10
2018-08-22T00:20:50.405Z,96.30
2018-08-22T00:23:19.029Z,96.60
2018-08-22T00:25:47.630Z,96.80
2018-08-22T00:28:16.217Z,97.30
2018-08-22T00:30:44.818Z,97.00
2018-08-22T00:33:13.414Z,97.40
2018-08-22T00:35:42.026Z,97.40
2018-08-22T00:38:10.603Z,97.30
2018-08-22T00:40:39.109Z,96.90
2018-08-22T00:43:07.637Z,96.70
2018-08-22T00:45:36.190Z,96.70
2018-08-22T00:48:04.830Z,97.00
2018-08-22T00:50:33.395Z,97.60
2018-08-22T00:53:02.032Z,98.00
2018-08-22T00:55:30.560Z,98.10
2018-08-22T00:57:59.101Z,98.50
2018-08-22T01:00:27.657Z,98.30
2018-08-22T01:02:56.307Z,98.50
2018-08-22T01:05:25.044Z,98.70
2018-08-22T01:07:53.677Z,98.60
2018-08-22T01:10:22.270Z,98.70
2018-08-22T01:12:50.897Z,98.20
2018-08-22T01:15:19.456Z,98.30
2018-08-22T01:17:48.019Z,98.20
2018-08-22T01:20:16.615Z,98.50
2018-08-22T01:22:45.173Z,99.00
2018-08-22T01:25:13.737Z,99.00
2018-08-22T01:27:44.793Z,99.00
2018-08-22T01:30:13.356Z,99.40
2018-08-22T01:32:41.944Z,99.60
2018-08-22T01:35:10.530Z,99.80
2018-08-22T01:37:39.088Z,99.70
2018-08-22T01:40:07.702Z,99.80
2018-08-22T01:42:36.312Z,99.90
2018-08-22T01:45:05.080Z,99.90
2018-08-22T01:47:33.630Z,99.90
2018-08-22T01:50:02.198Z,99.90
2018-08-22T01:52:30.752Z,99.90
2018-08-22T01:54:59.346Z,99.80
2018-08-22T01:57:27.953Z,99.70
2018-08-22T01:59:56.569Z,99.80
2018-08-22T02:02:25.140Z,99.80
2018-08-22T02:04:53.786Z,99.90
2018-08-22T02:07:22.433Z,99.90
2018-08-22T02:09:51.054Z,99.90
2018-08-22T02:12:19.597Z,99.90
2018-08-22T02:14:48.228Z,99.90
2018-08-22T02:17:16.784Z,99.90
2018-08-22T02:19:45.380Z,99.90
2018-08-22T02:22:13.888Z,99.90
2018-08-22T02:24:42.453Z,99.90
2018-08-22T02:27:11.028Z,99.90
2018-08-22T02:29:39.582Z,99.90
2018-08-22T02:32:08.261Z,99.90
2018-08-22T02:34:36.821Z,99.90
2018-08-22T02:37:05.376Z,99.90
2018-08-22T02:39:33.955Z,99.90
2018-08-22T02:42:02.574Z,99.90
2018-08-22T02:44:31.163Z,99.90
2018-08-22T02:46:59.740Z,99.90
2018-08-22T02:49:28.341Z,99.90
2018-08-22T02:51:56.941Z,99.90
2018-08-22T02:54:25.615Z,99.90
2018-08-22T02:56:54.164Z,99.90
2018-08-22T02:59:22.811Z,99.90
2018-08-22T03:01:51.368Z,99.90
2018-08-22T03:04:19.961Z,99.90
2018-08-22T03:06:48.573Z,99.90
2018-08-22T03:09:17.119Z,99.90
2018-08-22T03:11:45.736Z,99.90
2018-08-22T03:14:14.336Z,99.90
2018-08-22T03:16:42.885Z,99.90
2018-08-22T03:19:11.489Z,99.90
2018-08-22T03:21:40.057Z,99.90
2018-08-22T03:24:08.663Z,99.90
2018-08-22T03:26:37.293Z,99.90
2018-08-22T03:29:05.918Z,99.90
2018-08-22T03:31:34.545Z,99.90
2018-08-22T03:34:03.134Z,99.90
2018-08-22T03:36:31.749Z,99.90
2018-08-22T03:39:00.304Z,99.90
2018-08-22T03:41:28.938Z,99.90
2018-08-22T03:43:57.499Z,99.90
2018-08-22T03:46:26.104Z,99.90
2018-08-22T03:48:54.636Z,99.90
2018-08-22T03:51:23.238Z,99.90
2018-08-22T03:53:51.834Z,99.90
2018-08-22T03:56:20.524Z,99.90
2018-08-22T03:58:49.116Z,99.90
2018-08-22T04:01:17.657Z,99.90
2018-08-22T04:03:46.221Z,99.90
2018-08-22T04:06:14.866Z,99.90
2018-08-22T04:08:43.440Z,99.90
2018-08-22T04:11:12.064Z,99.90
2018-08-22T04:13:40.711Z,99.90
2018-08-22T04:16:09.281Z,99.90
2018-08-22T04:18:37.889Z,99.90
2018-08-22T04:21:06.720Z,99.90
2018-08-22T04:23:35.379Z,99.90
2018-08-22T04:26:04.103Z,99.90
2018-08-22T04:28:32.728Z,99.90
2018-08-22T04:31:01.718Z,99.90
2018-08-22T04:33:30.363Z,99.90
2018-08-22T04:35:58.986Z,99.90
2018-08-22T04:38:27.606Z,99.90
2018-08-22T04:40:56.262Z,99.90
2018-08-22T04:43:24.865Z,99.90
2018-08-22T04:45:53.535Z,99.90
2018-08-22T04:48:22.083Z,99.90
2018-08-22T04:50:50.729Z,99.90
2018-08-22T04:53:19.323Z,99.90
2018-08-22T04:55:48.012Z,99.90
2018-08-22T04:58:16.618Z,99.90
2018-08-22T05:00:45.273Z,99.90
2018-08-22T05:03:13.841Z,99.90
2018-08-22T05:05:43.441Z,99.90
2018-08-22T05:08:12.133Z,99.90
2018-08-22T05:10:40.943Z,99.90
2018-08-22T05:13:09.601Z,99.90
2018-08-22T05:15:38.294Z,99.90
2018-08-22T05:18:07.448Z,99.90
2018-08-22T05:20:35.964Z,99.90
2018-08-22T05:23:04.800Z,99.90
2018-08-22T05:25:33.404Z,99.90
2018-08-22T05:28:01.999Z,99.90
2018-08-22T05:30:30.698Z,99.90
2018-08-22T05:32:59.290Z,99.90
2018-08-22T05:35:27.855Z,99.90
2018-08-22T05:37:56.466Z,99.90
2018-08-22T05:40:25.041Z,99.90
2018-08-22T05:42:53.633Z,99.90
2018-08-22T05:45:22.297Z,99.90
2018-08-22T05:47:50.887Z,99.90
2018-08-22T05:50:19.447Z,99.90
2018-08-22T05:52:48.055Z,99.90
2018-08-22T05:55:16.666Z,99.90
2018-08-22T05:57:45.319Z,99.90
2018-08-22T06:00:13.862Z,99.90
2018-08-22T06:02:42.484Z,99.90
2018-08-22T06:05:11.094Z,99.90
2018-08-22T06:07:39.692Z,99.90
2018-08-22T06:10:08.211Z,99.90
2018-08-22T06:12:36.803Z,99.90
2018-08-22T06:15:05.448Z,99.90
2018-08-22T06:17:34.093Z,99.90
2018-08-22T06:20:02.727Z,99.90
2018-08-22T06:22:31.523Z,99.90
2018-08-22T06:25:00.336Z,99.90
2018-08-22T06:27:29.205Z,99.90
2018-08-22T06:29:58.046Z,99.90
2018-08-22T06:32:26.925Z,99.90
2018-08-22T06:34:55.789Z,99.90
2018-08-22T06:37:24.603Z,99.90
2018-08-22T06:39:53.352Z,99.90
2018-08-22T06:42:22.116Z,99.90
2018-08-22T06:44:50.942Z,99.90
2018-08-22T06:47:19.685Z,99.50
2018-08-22T06:49:48.507Z,99.00
2018-08-22T06:52:17.392Z,98.50
2018-08-22T06:54:46.151Z,97.90
2018-08-22T06:57:15.107Z,97.40
2018-08-22T06:59:43.730Z,96.80
2018-08-22T07:02:12.341Z,96.70
2018-08-22T07:04:40.894Z,96.60
2018-08-22T07:07:09.473Z,96.10
2018-08-22T07:09:38.071Z,95.70
2018-08-22T07:12:06.611Z,95.20
2018-08-22T07:14:35.223Z,95.00
2018-08-22T07:17:03.765Z,95.10
2018-08-22T07:19:32.283Z,94.70
2018-08-22T07:22:00.830Z,94.10
2018-08-22T07:24:29.405Z,93.80
2018-08-22T07:26:58.047Z,93.40
2018-08-22T07:29:26.657Z,93.10
2018-08-22T07:31:55.228Z,92.80
2018-08-22T07:34:23.851Z,92.80
2018-08-22T07:36:52.428Z,92.60
2018-08-22T07:39:21.036Z,92.40
2018-08-22T07:41:49.681Z,92.10
2018-08-22T07:44:18.244Z,91.40
2018-08-22T07:46:46.810Z,90.70
2018-08-22T07:49:15.352Z,90.20
2018-08-22T07:51:43.906Z,90.00
2018-08-22T07:54:12.475Z,88.40
2018-08-22T07:56:41.119Z,87.60
2018-08-22T07:59:19.353Z,86.50
2018-08-22T08:01:47.985Z,85.80
2018-08-22T08:04:16.595Z,86.10
2018-08-22T08:06:45.211Z,84.40
2018-08-22T08:09:14.928Z,84.00
2018-08-22T08:11:43.615Z,83.00
2018-08-22T08:14:12.153Z,81.60
2018-08-22T08:16:40.764Z,81.20
2018-08-22T08:19:09.415Z,81.10
2018-08-22T08:21:38.441Z,80.50
2018-08-22T08:24:08.010Z,79.00
2018-08-22T08:26:36.866Z,78.30
2018-08-22T08:29:05.638Z,78.30
2018-08-22T08:31:34.196Z,77.00
2018-08-22T08:34:02.758Z,76.30
2018-08-22T08:36:31.326Z,75.80
2018-08-22T08:38:59.920Z,75.40
2018-08-22T08:41:28.544Z,74.20
2018-08-22T08:43:57.158Z,73.80
2018-08-22T08:46:25.724Z,73.80
2018-08-22T08:48:54.350Z,72.80
2018-08-22T08:51:22.933Z,71.60
2018-08-22T08:53:51.530Z,71.10
2018-08-22T08:56:20.085Z,71.20
2018-08-22T08:58:48.745Z,69.30
2018-08-22T09:01:17.271Z,66.00
2018-08-22T09:03:46.010Z,68.40
2018-08-22T09:06:14.602Z,68.10
2018-08-22T09:08:43.242Z,65.90
2018-08-22T09:11:11.838Z,63.90
2018-08-22T09:13:47.675Z,63.20
2018-08-22T09:16:16.740Z,62.80
2018-08-22T09:18:45.338Z,62.20
2018-08-22T09:21:13.984Z,59.10
2018-08-22T09:23:42.536Z,57.70
2018-08-22T09:26:11.145Z,57.50
2018-08-22T09:28:39.786Z,59.00
2018-08-22T09:31:08.306Z,58.80
2018-08-22T09:33:36.826Z,58.20
2018-08-22T09:36:05.553Z,57.60
2018-08-22T09:38:34.074Z,56.90
2018-08-22T09:41:02.652Z,57.50
2018-08-22T09:43:31.166Z,56.80
2018-08-22T09:45:59.736Z,57.20
2018-08-22T09:48:28.302Z,57.30
2018-08-22T09:50:56.891Z,56.90
2018-08-22T09:53:25.633Z,56.20
2018-08-22T09:55:54.303Z,56.30
2018-08-22T09:58:22.901Z,56.20
2018-08-22T10:00:56.737Z,56.20
2018-08-22T10:03:25.362Z,55.70
2018-08-22T10:05:53.942Z,55.70
2018-08-22T10:08:22.563Z,55.30
2018-08-22T10:10:51.212Z,55.10
2018-08-22T10:13:19.783Z,55.20
2018-08-22T10:15:48.363Z,54.90
2018-08-22T10:18:16.960Z,55.00
2018-08-22T10:20:45.589Z,55.00
2018-08-22T10:23:14.183Z,54.20
2018-08-22T10:25:42.927Z,54.10
2018-08-22T10:28:11.857Z,54.20
2018-08-22T10:30:40.430Z,54.00
2018-08-22T10:33:09.097Z,53.10
2018-08-22T10:35:37.637Z,52.70
2018-08-22T10:38:06.221Z,52.30
2018-08-22T10:40:34.791Z,52.00
2018-08-22T10:43:03.365Z,51.40
2018-08-22T10:45:31.931Z,51.40
2018-08-22T10:48:00.492Z,51.50
2018-08-22T10:50:29.240Z,51.40
2018-08-22T10:52:57.817Z,49.80
2018-08-22T10:55:26.472Z,49.60
2018-08-22T10:57:55.041Z,49.10
2018-08-22T11:00:23.633Z,49.20
2018-08-22T11:02:52.203Z,48.70
2018-08-22T11:05:20.807Z,48.40
2018-08-22T11:07:50.572Z,48.10
2018-08-22T11:10:19.168Z,47.60
2018-08-22T11:12:47.877Z,46.10
2018-08-22T11:15:16.566Z,45.30
2018-08-22T11:17:45.181Z,45.80
2018-08-22T11:20:13.786Z,45.20
2018-08-22T11:22:53.699Z,44.60
2018-08-22T11:25:33.418Z,44.90
2018-08-22T11:28:13.173Z,44.90
2018-08-22T11:30:52.997Z,43.80
2018-08-22T11:33:32.561Z,43.60
2018-08-22T11:35:59.935Z,43.00
2018-08-22T11:38:28.559Z,43.60
2018-08-22T11:40:57.137Z,42.30
2018-08-22T11:43:25.747Z,42.40
2018-08-22T11:45:54.370Z,42.90
2018-08-22T11:48:22.959Z,43.30
2018-08-22T11:50:51.790Z,43.00
2018-08-22T11:53:20.657Z,43.00
2018-08-22T11:55:49.505Z,43.30
2018-08-22T11:58:18.027Z,43.20
2018-08-22T12:00:46.814Z,42.80
2018-08-22T12:03:16.409Z,42.80
2018-08-22T12:05:44.893Z,42.90
2018-08-22T12:08:13.469Z,42.60
2018-08-22T12:10:42.101Z,43.00
2018-08-22T12:13:10.703Z,42.80
2018-08-22T12:15:39.316Z,42.20
2018-08-22T12:18:07.892Z,42.20
2018-08-22T12:20:36.498Z,42.30
2018-08-22T12:23:05.098Z,42.30
2018-08-22T12:25:33.651Z,41.90
2018-08-22T12:28:02.209Z,41.30
2018-08-22T12:30:30.838Z,41.20
2018-08-22T12:32:59.497Z,41.20
2018-08-22T12:35:28.084Z,41.20
2018-08-22T12:37:56.681Z,40.90
2018-08-22T12:40:25.205Z,40.90
2018-08-22T12:42:53.754Z,40.90
2018-08-22T12:45:22.277Z,40.40
2018-08-22T12:47:50.924Z,40.40
2018-08-22T12:50:19.566Z,40.60
2018-08-22T12:52:48.200Z,40.90
2018-08-22T12:55:16.774Z,40.30
2018-08-22T12:57:45.322Z,39.90
2018-08-22T13:00:13.948Z,39.20
2018-08-22T13:02:42.491Z,39.10
2018-08-22T13:05:11.064Z,39.20
2018-08-22T13:07:39.693Z,39.10
2018-08-22T13:10:08.450Z,38.70
2018-08-22T13:12:37.010Z,38.50
2018-08-22T13:15:06.676Z,38.40
2018-08-22T13:17:35.225Z,38.10
2018-08-22T13:20:03.901Z,38.20
2018-08-22T13:22:32.444Z,38.50
2018-08-22T13:25:01.038Z,38.70
2018-08-22T13:27:29.604Z,38.50
2018-08-22T13:29:58.487Z,38.20
2018-08-22T13:32:27.324Z,38.20
2018-08-22T13:34:55.909Z,38.90
2018-08-22T13:37:24.761Z,38.90
2018-08-22T13:39:53.341Z,38.30
2018-08-22T13:42:22.012Z,38.80
2018-08-22T13:44:50.545Z,38.40
2018-08-22T13:47:19.125Z,38.50
2018-08-22T13:49:47.719Z,37.90
2018-08-22T13:52:16.305Z,38.30
2018-08-22T13:54:44.885Z,37.50
2018-08-22T13:57:13.440Z,37.80
2018-08-22T13:59:42.005Z,37.90
2018-08-22T14:02:10.578Z,38.30
2018-08-22T14:04:39.210Z,37.90
2018-08-22T14:07:07.769Z,38.10
2018-08-22T14:09:36.397Z,38.70
2018-08-22T14:12:05.012Z,39.40
2018-08-22T14:14:33.625Z,39.60
2018-08-22T14:17:02.258Z,39.90
2018-08-22T14:19:30.904Z,39.40
2018-08-22T14:21:59.444Z,39.20
2018-08-22T14:24:28.042Z,38.50
2018-08-22T14:26:56.598Z,38.70
2018-08-22T14:29:25.134Z,37.90
2018-08-22T14:31:53.802Z,38.30
2018-08-22T14:34:22.498Z,38.50
2018-08-22T14:36:51.238Z,38.00
2018-08-22T14:39:19.930Z,38.10
2018-08-22T14:41:48.457Z,38.20
2018-08-22T14:44:17.062Z,38.40
2018-08-22T14:46:45.623Z,38.70
2018-08-22T14:49:14.500Z,37.80
2018-08-22T14:51:43.167Z,37.40
2018-08-22T14:54:11.842Z,37.80
2018-08-22T14:56:40.412Z,38.00
2018-08-22T14:59:09.014Z,37.40
2018-08-22T15:01:37.618Z,37.00
2018-08-22T15:04:06.512Z,38.00
2018-08-22T15:06:35.184Z,38.20
2018-08-22T15:09:09.533Z,37.80
2018-08-22T15:11:38.096Z,38.10
2018-08-22T15:14:06.813Z,38.50
2018-08-22T15:16:35.375Z,38.50
2018-08-22T15:19:03.996Z,39.20
2018-08-22T15:21:32.496Z,40.10
2018-08-22T15:24:01.094Z,40.40
2018-08-22T15:26:29.681Z,41.00
2018-08-22T15:28:58.348Z,41.30
2018-08-22T15:31:26.937Z,42.40
2018-08-22T15:33:55.562Z,46.30
2018-08-22T15:36:24.267Z,48.00
2018-08-22T15:38:52.887Z,50.00
2018-08-22T15:41:21.487Z,51.30
2018-08-22T15:43:50.092Z,52.10
2018-08-22T15:46:18.645Z,54.30
2018-08-22T15:48:47.253Z,54.40
2018-08-22T15:51:15.863Z,54.60
2018-08-22T15:53:48.179Z,54.90
2018-08-22T15:56:16.748Z,54.20
2018-08-22T15:58:45.366Z,55.10
2018-08-22T16:01:13.928Z,55.80
2018-08-22T16:03:42.530Z,56.10
2018-08-22T16:06:11.119Z,56.50
2018-08-22T16:08:39.700Z,59.30
2018-08-22T16:11:08.255Z,61.00
2018-08-22T16:13:37.703Z,65.90
2018-08-22T16:16:06.288Z,69.70
2018-08-22T16:18:34.935Z,71.80
2018-08-22T16:21:06.065Z,71.60
2018-08-22T16:23:35.571Z,77.50
2018-08-22T16:26:05.161Z,80.60
2018-08-22T16:28:46.673Z,78.30
2018-08-22T16:31:15.354Z,81.60
2018-08-22T16:33:43.909Z,89.10
2018-08-22T16:36:31.532Z,90.60
2018-08-22T16:39:01.702Z,91.60
2018-08-22T16:41:30.296Z,92.90
2018-08-22T16:43:58.826Z,93.40
2018-08-22T16:46:27.483Z,97.20
2018-08-22T16:48:56.175Z,99.90
2018-08-22T16:51:24.928Z,99.90
2018-08-22T16:53:59.788Z,99.90
2018-08-22T16:56:29.115Z,99.90
2018-08-22T16:59:03.151Z,99.90
2018-08-22T17:01:31.890Z,99.90
2018-08-22T17:04:00.527Z,99.90
2018-08-22T17:06:29.055Z,99.90
2018-08-22T17:08:58.327Z,99.90
2018-08-22T17:11:26.896Z,99.90
2018-08-22T17:13:55.475Z,99.30
2018-08-22T17:16:24.857Z,99.90
2018-08-22T17:18:53.508Z,99.90
2018-08-22T17:21:22.069Z,99.90
2018-08-22T17:23:51.034Z,99.90
2018-08-22T17:26:21.613Z,99.90
2018-08-22T17:28:52.723Z,99.90
2018-08-22T17:31:22.324Z,98.40
2018-08-22T17:33:52.873Z,98.40
2018-08-22T17:36:21.452Z,98.60
2018-08-22T17:38:52.637Z,97.60
2018-08-22T17:41:23.597Z,97.60
2018-08-22T17:44:09.317Z,96.60
2018-08-22T17:46:39.188Z,96.50
2018-08-22T17:49:07.900Z,95.20
2018-08-22T17:52:16.418Z,94.60
2018-08-22T17:54:45.089Z,94.70
2018-08-22T17:57:23.091Z,95.10
2018-08-22T17:59:51.743Z,95.10
2018-08-22T18:02:20.356Z,95.70
2018-08-22T18:04:55.717Z,96.50
2018-08-22T18:07:24.305Z,97.10
2018-08-22T18:09:53.010Z,97.00
2018-08-22T18:12:25.339Z,98.50
2018-08-22T18:14:56.065Z,97.90
2018-08-22T18:17:24.686Z,97.80
2018-08-22T18:19:55.370Z,99.90
2018-08-22T18:22:28.595Z,99.90
2018-08-22T18:24:57.836Z,99.90
2018-08-22T18:27:26.890Z,99.90
2018-08-22T18:29:55.515Z,99.90
2018-08-22T18:32:24.119Z,99.60
2018-08-22T18:35:00.333Z,99.80
2018-08-22T18:37:29.830Z,99.90
2018-08-22T18:40:26.627Z,99.90
2018-08-22T18:42:58.523Z,99.90
2018-08-22T18:45:27.480Z,99.90
2018-08-22T18:47:56.246Z,99.90
2018-08-22T18:50:24.917Z,99.90
2018-08-22T18:52:55.757Z,99.90
2018-08-22T18:55:27.033Z,99.90
2018-08-22T18:57:56.365Z,99.90
2018-08-22T19:00:24.996Z,99.90
2018-08-22T19:02:56.609Z,99.90
2018-08-22T19:05:35.939Z,99.90
2018-08-22T19:08:14.238Z,99.90
2018-08-22T19:10:44.013Z,99.90
2018-08-22T19:13:17.884Z,99.90
2018-08-22T19:15:51.048Z,99.90
2018-08-22T19:18:19.858Z,99.90
2018-08-22T19:20:48.927Z,99.90
2018-08-22T19:23:17.631Z,99.90
2018-08-22T19:25:48.026Z,99.90
2018-08-22T19:28:16.593Z,99.90
2018-08-22T19:30:45.162Z,99.90
2018-08-22T19:33:15.237Z,99.90
2018-08-22T19:35:45.566Z,99.90
2018-08-22T19:38:22.961Z,99.90
2018-08-22T19:40:51.837Z,99.90
2018-08-22T19:43:20.484Z,99.90
2018-08-22T19:45:49.039Z,99.90
2018-08-22T19:48:17.633Z,99.90
2018-08-22T19:50:48.283Z,99.90
2018-08-22T19:53:16.862Z,99.90
2018-08-22T19:55:45.446Z,99.90
2018-08-22T19:58:15.423Z,99.90
2018-08-22T20:00:44.038Z,99.90
2018-08-22T20:03:15.034Z,99.90
2018-08-22T20:05:52.675Z,99.90
2018-08-22T20:08:26.506Z,99.90
2018-08-22T20:10:55.151Z,99.90
2018-08-22T20:13:23.978Z,99.90
2018-08-22T20:15:52.554Z,99.90
2018-08-22T20:18:21.078Z,99.90
2018-08-22T20:20:49.932Z,99.90
2018-08-22T20:23:18.731Z,99.90
2018-08-22T20:25:47.278Z,99.90
2018-08-22T20:28:15.839Z,99.90
2018-08-22T20:30:44.345Z,99.90
2018-08-22T20:33:12.967Z,99.90
2018-08-22T20:35:43.051Z,99.90
2018-08-22T20:38:12.776Z,99.90
2018-08-22T20:40:41.421Z,99.90
2018-08-22T20:43:18.534Z,99.90
2018-08-22T20:45:47.118Z,99.90
2018-08-22T20:48:18.247Z,99.90
2018-08-22T20:50:46.814Z,99.90
2018-08-22T20:53:18.039Z,99.90
2018-08-22T20:55:46.693Z,99.90
2018-08-22T20:58:20.498Z,99.90
2018-08-22T21:00:49.101Z,99.90
2018-08-22T21:03:18.600Z,99.90
2018-08-22T21:05:47.166Z,99.90
2018-08-22T21:08:15.744Z,99.90
2018-08-22T21:10:44.364Z,99.90
2018-08-22T21:13:20.002Z,99.90
2018-08-22T21:15:48.557Z,99.90
2018-08-22T21:18:17.113Z,99.90
2018-08-22T21:20:45.735Z,99.90
2018-08-22T21:23:14.342Z,99.90
2018-08-22T21:25:45.194Z,99.90
2018-08-22T21:28:14.098Z,99.90
2018-08-22T21:30:47.790Z,99.90
2018-08-22T21:33:16.377Z,99.90
2018-08-22T21:35:44.941Z,99.90
2018-08-22T21:38:18.418Z,99.90
2018-08-22T21:40:47.147Z,99.90
2018-08-22T21:43:15.756Z,99.90
2018-08-22T21:45:44.449Z,99.90
2018-08-22T21:48:20.529Z,99.90
2018-08-22T21:50:49.102Z,99.90
2018-08-22T21:53:17.757Z,99.90
2018-08-22T21:55:50.518Z,99.90
2018-08-22T21:58:19.060Z,99.90
2018-08-22T22:00:47.638Z,99.90
2018-08-22T22:03:20.356Z,99.90
2018-08-22T22:05:55.302Z,99.90
2018-08-22T22:08:24.271Z,99.90
2018-08-22T22:10:59.488Z,99.90
2018-08-22T22:13:28.125Z,99.90
2018-08-22T22:15:59.273Z,99.90
2018-08-22T22:18:27.955Z,99.90
2018-08-22T22:21:07.881Z,99.90
2018-08-22T22:23:46.579Z,99.90
2018-08-22T22:26:16.329Z,99.90
2018-08-22T22:28:44.946Z,99.90
2018-08-22T22:31:16.806Z,99.90
2018-08-22T22:33:52.597Z,99.90
2018-08-22T22:36:21.390Z,99.90
2018-08-22T22:38:49.948Z,99.90
2018-08-22T22:41:18.651Z,99.90
2018-08-22T22:43:47.358Z,99.90
2018-08-22T22:46:15.980Z,99.90
2018-08-22T22:48:44.876Z,99.90
2018-08-22T22:51:13.434Z,99.90
2018-08-22T22:53:41.942Z,99.90
2018-08-22T22:56:10.491Z,99.90
2018-08-22T22:58:39.197Z,99.90
2018-08-22T23:01:08.068Z,99.90
2018-08-22T23:03:36.682Z,99.90
2018-08-22T23:06:05.236Z,99.90
2018-08-22T23:08:33.834Z,99.90
2018-08-22T23:11:02.424Z,99.90
2018-08-22T23:13:30.933Z,99.90
2018-08-22T23:15:59.510Z,99.90
2018-08-22T23:18:28.234Z,99.90
2018-08-22T23:20:56.738Z,99.90
2018-08-22T23:23:42.647Z,99.90
2018-08-22T23:26:16.667Z,99.90
2018-08-22T23:28:45.516Z,99.90
2018-08-22T23:31:16.775Z,99.90
2018-08-22T23:33:45.453Z,99.90
2018-08-22T23:36:14.049Z,99.90
2018-08-22T23:38:42.597Z,99.90
2018-08-22T23:41:11.333Z,99.90
2018-08-22T23:43:44.101Z,99.90
2018-08-22T23:46:13.813Z,99.90
2018-08-22T23:48:42.427Z,99.90
2018-08-22T23:51:13.025Z,99.90
2018-08-22T23:53:46.849Z,99.90
2018-08-22T23:56:18.404Z,99.90
2018-08-22T23:58:47.683Z,99.90
